sensor_id;sensor_type;location;lat;lon;timestamp;P1;durP1;ratioP1;P2;durP2;ratioP2
9698;SDS011;10089;47.876;8.346;2024-01-30T00:00:08;1.67;;;1.40;;
9698;SDS011;10089;47.876;8.346;2024-01-30T00:11:27;2.10;;;1.50;;
9698;SDS011;10089;47.876;8.346;2024-01-30T00:14:33;1.67;;;1.48;;
9698;SDS011;10089;47.876;8.346;2024-01-30T00:18:23;4.22;;;1.70;;
9698;SDS011;10089;47.876;8.346;2024-01-30T00:21:27;2.17;;;1.80;;
9698;SDS011;10089;47.876;8.346;2024-01-30T00:24:31;1.23;;;1.13;;
9698;SDS011;10089;47.876;8.346;2024-01-30T00:31:52;4.22;;;1.50;;
9698;SDS011;10089;47.876;8.346;2024-01-30T00:35:29;2.78;;;2.10;;
9698;SDS011;10089;47.876;8.346;2024-01-30T00:39:25;4.72;;;2.00;;
9698;SDS011;10089;47.876;8.346;2024-01-30T00:43:35;2.83;;;2.00;;
9698;SDS011;10089;47.876;8.346;2024-01-30T00:47:06;3.50;;;2.43;;
9698;SDS011;10089;47.876;8.346;2024-01-30T00:50:19;2.58;;;1.83;;
9698;SDS011;10089;47.876;8.346;2024-01-30T00:53:18;2.00;;;1.83;;
9698;SDS011;10089;47.876;8.346;2024-01-30T00:57:20;2.40;;;2.00;;
9698;SDS011;10089;47.876;8.346;2024-01-30T01:01:15;3.08;;;2.00;;
9698;SDS011;10089;47.876;8.346;2024-01-30T01:04:32;3.23;;;1.93;;
9698;SDS011;10089;47.876;8.346;2024-01-30T01:08:21;2.20;;;1.77;;
9698;SDS011;10089;47.876;8.346;2024-01-30T01:11:29;4.30;;;2.08;;
9698;SDS011;10089;47.876;8.346;2024-01-30T01:14:40;2.35;;;2.03;;
9698;SDS011;10089;47.876;8.346;2024-01-30T01:18:11;3.83;;;2.40;;
9698;SDS011;10089;47.876;8.346;2024-01-30T01:22:03;3.60;;;2.50;;
9698;SDS011;10089;47.876;8.346;2024-01-30T01:26:19;3.53;;;2.10;;
9698;SDS011;10089;47.876;8.346;2024-01-30T01:33:58;3.03;;;2.33;;
9698;SDS011;10089;47.876;8.346;2024-01-30T01:37:55;2.47;;;2.20;;
9698;SDS011;10089;47.876;8.346;2024-01-30T01:41:43;2.37;;;1.80;;
9698;SDS011;10089;47.876;8.346;2024-01-30T01:45:13;3.03;;;1.75;;
9698;SDS011;10089;47.876;8.346;2024-01-30T01:49:19;1.83;;;1.43;;
9698;SDS011;10089;47.876;8.346;2024-01-30T01:56:55;2.47;;;1.90;;
9698;SDS011;10089;47.876;8.346;2024-01-30T02:01:06;2.57;;;1.90;;
9698;SDS011;10089;47.876;8.346;2024-01-30T02:05:29;5.07;;;1.90;;
9698;SDS011;10089;47.876;8.346;2024-01-30T02:13:26;1.50;;;1.40;;
9698;SDS011;10089;47.876;8.346;2024-01-30T02:17:02;1.67;;;1.57;;
9698;SDS011;10089;47.876;8.346;2024-01-30T02:20:36;2.00;;;1.63;;
9698;SDS011;10089;47.876;8.346;2024-01-30T02:24:26;2.50;;;1.70;;
9698;SDS011;10089;47.876;8.346;2024-01-30T02:35:29;1.80;;;1.50;;
9698;SDS011;10089;47.876;8.346;2024-01-30T02:39:03;2.60;;;1.50;;
9698;SDS011;10089;47.876;8.346;2024-01-30T02:50:31;2.07;;;1.50;;
9698;SDS011;10089;47.876;8.346;2024-01-30T02:54:23;2.17;;;1.50;;
9698;SDS011;10089;47.876;8.346;2024-01-30T03:02:03;3.07;;;1.37;;
9698;SDS011;10089;47.876;8.346;2024-01-30T03:05:46;2.10;;;1.57;;
9698;SDS011;10089;47.876;8.346;2024-01-30T03:09:38;1.90;;;1.70;;
9698;SDS011;10089;47.876;8.346;2024-01-30T03:13:43;2.43;;;1.73;;
9698;SDS011;10089;47.876;8.346;2024-01-30T03:17:36;2.63;;;1.80;;
9698;SDS011;10089;47.876;8.346;2024-01-30T03:25:45;2.90;;;1.90;;
9698;SDS011;10089;47.876;8.346;2024-01-30T03:33:08;6.60;;;4.13;;
9698;SDS011;10089;47.876;8.346;2024-01-30T03:40:43;3.10;;;2.17;;
9698;SDS011;10089;47.876;8.346;2024-01-30T03:44:12;2.70;;;2.00;;
9698;SDS011;10089;47.876;8.346;2024-01-30T03:48:07;2.80;;;1.90;;
9698;SDS011;10089;47.876;8.346;2024-01-30T03:59:49;2.13;;;1.83;;
9698;SDS011;10089;47.876;8.346;2024-01-30T04:04:26;3.30;;;2.17;;
9698;SDS011;10089;47.876;8.346;2024-01-30T04:12:19;2.47;;;1.83;;
9698;SDS011;10089;47.876;8.346;2024-01-30T04:16:08;3.83;;;1.73;;
9698;SDS011;10089;47.876;8.346;2024-01-30T04:23:16;2.00;;;1.60;;
9698;SDS011;10089;47.876;8.346;2024-01-30T04:30:50;3.87;;;2.20;;
9698;SDS011;10089;47.876;8.346;2024-01-30T04:37:49;3.57;;;2.80;;
9698;SDS011;10089;47.876;8.346;2024-01-30T04:42:16;7.73;;;4.77;;
9698;SDS011;10089;47.876;8.346;2024-01-30T04:54:24;3.97;;;2.53;;
9698;SDS011;10089;47.876;8.346;2024-01-30T05:02:28;3.00;;;2.37;;
9698;SDS011;10089;47.876;8.346;2024-01-30T05:06:01;3.03;;;2.73;;
9698;SDS011;10089;47.876;8.346;2024-01-30T05:10:11;3.53;;;3.20;;
9698;SDS011;10089;47.876;8.346;2024-01-30T05:14:08;5.37;;;3.57;;
9698;SDS011;10089;47.876;8.346;2024-01-30T05:18:10;3.07;;;2.77;;
9698;SDS011;10089;47.876;8.346;2024-01-30T05:22:15;3.83;;;2.80;;
9698;SDS011;10089;47.876;8.346;2024-01-30T05:25:40;2.77;;;2.20;;
9698;SDS011;10089;47.876;8.346;2024-01-30T05:29:31;2.30;;;2.10;;
9698;SDS011;10089;47.876;8.346;2024-01-30T05:33:11;4.63;;;1.90;;
9698;SDS011;10089;47.876;8.346;2024-01-30T05:36:57;2.10;;;1.80;;
9698;SDS011;10089;47.876;8.346;2024-01-30T05:40:26;4.77;;;2.10;;
9698;SDS011;10089;47.876;8.346;2024-01-30T05:44:28;2.43;;;1.83;;
9698;SDS011;10089;47.876;8.346;2024-01-30T05:52:23;3.27;;;1.80;;
9698;SDS011;10089;47.876;8.346;2024-01-30T06:07:53;5.27;;;3.53;;
9698;SDS011;10089;47.876;8.346;2024-01-30T06:11:46;27.07;;;10.73;;
9698;SDS011;10089;47.876;8.346;2024-01-30T06:15:40;71.50;;;27.93;;
9698;SDS011;10089;47.876;8.346;2024-01-30T06:22:22;19.17;;;7.40;;
9698;SDS011;10089;47.876;8.346;2024-01-30T06:26:12;14.63;;;5.47;;
9698;SDS011;10089;47.876;8.346;2024-01-30T06:30:17;7.00;;;3.30;;
9698;SDS011;10089;47.876;8.346;2024-01-30T06:32:56;4.23;;;2.20;;
9698;SDS011;10089;47.876;8.346;2024-01-30T06:35:32;7.33;;;2.97;;
9698;SDS011;10089;47.876;8.346;2024-01-30T06:41:06;4.13;;;2.13;;
9698;SDS011;10089;47.876;8.346;2024-01-30T06:43:34;2.40;;;2.00;;
9698;SDS011;10089;47.876;8.346;2024-01-30T06:46:09;5.00;;;2.27;;
9698;SDS011;10089;47.876;8.346;2024-01-30T06:48:34;4.30;;;2.60;;
9698;SDS011;10089;47.876;8.346;2024-01-30T06:51:13;3.93;;;2.50;;
9698;SDS011;10089;47.876;8.346;2024-01-30T06:53:39;4.40;;;4.00;;
9698;SDS011;10089;47.876;8.346;2024-01-30T06:56:05;5.83;;;4.60;;
9698;SDS011;10089;47.876;8.346;2024-01-30T06:58:34;10.77;;;5.90;;
9698;SDS011;10089;47.876;8.346;2024-01-30T07:01:15;11.23;;;7.30;;
9698;SDS011;10089;47.876;8.346;2024-01-30T07:04:20;5.50;;;3.60;;
9698;SDS011;10089;47.876;8.346;2024-01-30T07:06:45;5.07;;;3.67;;
9698;SDS011;10089;47.876;8.346;2024-01-30T07:09:11;6.87;;;3.17;;
9698;SDS011;10089;47.876;8.346;2024-01-30T07:11:38;5.17;;;3.27;;
9698;SDS011;10089;47.876;8.346;2024-01-30T07:14:05;5.47;;;3.43;;
9698;SDS011;10089;47.876;8.346;2024-01-30T07:16:34;8.27;;;4.27;;
9698;SDS011;10089;47.876;8.346;2024-01-30T07:19:21;9.10;;;4.10;;
9698;SDS011;10089;47.876;8.346;2024-01-30T07:21:47;6.45;;;4.57;;
9698;SDS011;10089;47.876;8.346;2024-01-30T07:24:20;6.63;;;3.90;;
9698;SDS011;10089;47.876;8.346;2024-01-30T07:26:46;4.43;;;3.07;;
9698;SDS011;10089;47.876;8.346;2024-01-30T07:29:12;4.27;;;2.43;;
9698;SDS011;10089;47.876;8.346;2024-01-30T07:31:38;2.80;;;2.30;;
9698;SDS011;10089;47.876;8.346;2024-01-30T07:34:03;5.67;;;2.40;;
9698;SDS011;10089;47.876;8.346;2024-01-30T07:36:29;4.33;;;2.27;;
9698;SDS011;10089;47.876;8.346;2024-01-30T07:38:55;3.70;;;2.30;;
9698;SDS011;10089;47.876;8.346;2024-01-30T07:48:56;3.80;;;2.80;;
9698;SDS011;10089;47.876;8.346;2024-01-30T07:51:22;6.97;;;4.43;;
9698;SDS011;10089;47.876;8.346;2024-01-30T07:53:50;6.43;;;4.00;;
9698;SDS011;10089;47.876;8.346;2024-01-30T07:56:15;7.03;;;4.20;;
9698;SDS011;10089;47.876;8.346;2024-01-30T07:58:45;5.30;;;2.60;;
9698;SDS011;10089;47.876;8.346;2024-01-30T08:01:10;6.77;;;2.57;;
9698;SDS011;10089;47.876;8.346;2024-01-30T08:03:36;5.28;;;3.78;;
9698;SDS011;10089;47.876;8.346;2024-01-30T08:06:02;3.20;;;2.07;;
9698;SDS011;10089;47.876;8.346;2024-01-30T08:08:30;3.42;;;2.33;;
9698;SDS011;10089;47.876;8.346;2024-01-30T08:10:56;3.30;;;2.23;;
9698;SDS011;10089;47.876;8.346;2024-01-30T08:13:21;3.22;;;2.22;;
9698;SDS011;10089;47.876;8.346;2024-01-30T08:15:47;3.72;;;2.10;;
9698;SDS011;10089;47.876;8.346;2024-01-30T08:18:13;4.47;;;2.28;;
9698;SDS011;10089;47.876;8.346;2024-01-30T08:20:38;3.17;;;2.70;;
9698;SDS011;10089;47.876;8.346;2024-01-30T08:23:04;4.32;;;3.00;;
9698;SDS011;10089;47.876;8.346;2024-01-30T08:25:30;5.03;;;3.40;;
9698;SDS011;10089;47.876;8.346;2024-01-30T08:27:55;3.80;;;2.85;;
9698;SDS011;10089;47.876;8.346;2024-01-30T08:30:24;3.92;;;2.00;;
9698;SDS011;10089;47.876;8.346;2024-01-30T08:32:49;2.20;;;1.75;;
9698;SDS011;10089;47.876;8.346;2024-01-30T08:35:16;2.35;;;1.90;;
9698;SDS011;10089;47.876;8.346;2024-01-30T08:37:45;1.85;;;1.33;;
9698;SDS011;10089;47.876;8.346;2024-01-30T08:40:11;1.40;;;1.30;;
9698;SDS011;10089;47.876;8.346;2024-01-30T08:42:39;4.70;;;2.78;;
9698;SDS011;10089;47.876;8.346;2024-01-30T08:45:05;4.80;;;3.15;;
9698;SDS011;10089;47.876;8.346;2024-01-30T08:47:31;4.93;;;3.30;;
9698;SDS011;10089;47.876;8.346;2024-01-30T08:49:58;4.15;;;2.92;;
9698;SDS011;10089;47.876;8.346;2024-01-30T08:56:07;5.28;;;3.10;;
9698;SDS011;10089;47.876;8.346;2024-01-30T08:58:53;6.13;;;2.75;;
9698;SDS011;10089;47.876;8.346;2024-01-30T09:01:19;4.13;;;3.15;;
9698;SDS011;10089;47.876;8.346;2024-01-30T09:03:46;3.47;;;2.47;;
9698;SDS011;10089;47.876;8.346;2024-01-30T09:06:11;4.03;;;2.55;;
9698;SDS011;10089;47.876;8.346;2024-01-30T09:08:37;3.60;;;2.42;;
9698;SDS011;10089;47.876;8.346;2024-01-30T09:11:13;2.65;;;2.40;;
9698;SDS011;10089;47.876;8.346;2024-01-30T09:13:49;6.82;;;3.40;;
9698;SDS011;10089;47.876;8.346;2024-01-30T09:16:15;8.23;;;5.65;;
9698;SDS011;10089;47.876;8.346;2024-01-30T09:18:43;87.90;;;42.90;;
9698;SDS011;10089;47.876;8.346;2024-01-30T09:21:09;24.98;;;8.65;;
9698;SDS011;10089;47.876;8.346;2024-01-30T09:23:35;42.17;;;19.45;;
9698;SDS011;10089;47.876;8.346;2024-01-30T09:26:01;5.50;;;3.75;;
9698;SDS011;10089;47.876;8.346;2024-01-30T09:28:27;3.58;;;2.83;;
9698;SDS011;10089;47.876;8.346;2024-01-30T09:30:53;4.38;;;2.70;;
9698;SDS011;10089;47.876;8.346;2024-01-30T09:33:23;6.07;;;3.28;;
9698;SDS011;10089;47.876;8.346;2024-01-30T09:35:49;4.28;;;3.08;;
9698;SDS011;10089;47.876;8.346;2024-01-30T09:38:16;4.45;;;3.17;;
9698;SDS011;10089;47.876;8.346;2024-01-30T09:40:41;5.35;;;3.67;;
9698;SDS011;10089;47.876;8.346;2024-01-30T09:43:07;8.23;;;5.40;;
9698;SDS011;10089;47.876;8.346;2024-01-30T09:45:34;6.15;;;3.90;;
9698;SDS011;10089;47.876;8.346;2024-01-30T09:48:01;42.80;;;18.20;;
9698;SDS011;10089;47.876;8.346;2024-01-30T09:50:27;9.65;;;5.75;;
9698;SDS011;10089;47.876;8.346;2024-01-30T09:52:53;15.30;;;7.60;;
9698;SDS011;10089;47.876;8.346;2024-01-30T09:55:23;9.70;;;6.43;;
9698;SDS011;10089;47.876;8.346;2024-01-30T09:57:49;9.00;;;5.18;;
9698;SDS011;10089;47.876;8.346;2024-01-30T10:00:15;6.45;;;4.35;;
9698;SDS011;10089;47.876;8.346;2024-01-30T10:02:41;7.65;;;3.80;;
9698;SDS011;10089;47.876;8.346;2024-01-30T10:05:07;3.78;;;3.03;;
9698;SDS011;10089;47.876;8.346;2024-01-30T10:07:33;6.47;;;2.70;;
9698;SDS011;10089;47.876;8.346;2024-01-30T10:09:59;7.25;;;4.53;;
9698;SDS011;10089;47.876;8.346;2024-01-30T10:12:29;7.30;;;4.60;;
9698;SDS011;10089;47.876;8.346;2024-01-30T10:14:55;10.93;;;4.85;;
9698;SDS011;10089;47.876;8.346;2024-01-30T10:17:24;7.97;;;4.43;;
9698;SDS011;10089;47.876;8.346;2024-01-30T10:19:50;6.05;;;3.83;;
9698;SDS011;10089;47.876;8.346;2024-01-30T10:22:16;8.20;;;5.18;;
9698;SDS011;10089;47.876;8.346;2024-01-30T10:24:42;9.55;;;4.68;;
9698;SDS011;10089;47.876;8.346;2024-01-30T10:27:10;6.47;;;3.85;;
9698;SDS011;10089;47.876;8.346;2024-01-30T10:29:37;3.92;;;2.83;;
9698;SDS011;10089;47.876;8.346;2024-01-30T10:32:03;8.48;;;5.05;;
9698;SDS011;10089;47.876;8.346;2024-01-30T10:34:30;10.43;;;6.47;;
9698;SDS011;10089;47.876;8.346;2024-01-30T10:36:59;17.55;;;8.35;;
9698;SDS011;10089;47.876;8.346;2024-01-30T10:39:40;22.65;;;11.32;;
9698;SDS011;10089;47.876;8.346;2024-01-30T10:42:14;15.75;;;10.98;;
9698;SDS011;10089;47.876;8.346;2024-01-30T10:44:44;13.30;;;8.98;;
9698;SDS011;10089;47.876;8.346;2024-01-30T10:47:21;50.92;;;25.58;;
9698;SDS011;10089;47.876;8.346;2024-01-30T10:49:51;107.38;;;50.00;;
9698;SDS011;10089;47.876;8.346;2024-01-30T10:52:19;12.38;;;6.00;;
9698;SDS011;10089;47.876;8.346;2024-01-30T10:54:45;8.15;;;5.25;;
9698;SDS011;10089;47.876;8.346;2024-01-30T10:57:12;7.68;;;3.92;;
9698;SDS011;10089;47.876;8.346;2024-01-30T10:59:40;4.22;;;3.05;;
9698;SDS011;10089;47.876;8.346;2024-01-30T11:02:09;22.98;;;10.35;;
9698;SDS011;10089;47.876;8.346;2024-01-30T11:04:45;5.75;;;3.92;;
9698;SDS011;10089;47.876;8.346;2024-01-30T11:07:17;7.90;;;3.85;;
9698;SDS011;10089;47.876;8.346;2024-01-30T11:10:06;4.53;;;2.83;;
9698;SDS011;10089;47.876;8.346;2024-01-30T11:12:38;6.93;;;4.10;;
9698;SDS011;10089;47.876;8.346;2024-01-30T11:15:09;6.78;;;4.20;;
9698;SDS011;10089;47.876;8.346;2024-01-30T11:17:47;15.00;;;7.78;;
9698;SDS011;10089;47.876;8.346;2024-01-30T11:22:52;6.22;;;3.85;;
9698;SDS011;10089;47.876;8.346;2024-01-30T11:25:21;7.95;;;4.47;;
9698;SDS011;10089;47.876;8.346;2024-01-30T11:27:49;5.82;;;3.40;;
9698;SDS011;10089;47.876;8.346;2024-01-30T11:30:25;13.98;;;6.40;;
9698;SDS011;10089;47.876;8.346;2024-01-30T11:35:38;15.30;;;7.80;;
9698;SDS011;10089;47.876;8.346;2024-01-30T11:38:05;14.70;;;7.75;;
9698;SDS011;10089;47.876;8.346;2024-01-30T11:40:32;26.38;;;6.97;;
9698;SDS011;10089;47.876;8.346;2024-01-30T11:43:01;7.45;;;4.60;;
9698;SDS011;10089;47.876;8.346;2024-01-30T11:45:28;7.63;;;3.97;;
9698;SDS011;10089;47.876;8.346;2024-01-30T11:47:57;7.18;;;2.28;;
9698;SDS011;10089;47.876;8.346;2024-01-30T11:50:27;1.40;;;1.30;;
9698;SDS011;10089;47.876;8.346;2024-01-30T11:52:54;1.98;;;1.77;;
9698;SDS011;10089;47.876;8.346;2024-01-30T11:55:23;2.08;;;1.70;;
9698;SDS011;10089;47.876;8.346;2024-01-30T11:57:50;1.67;;;1.52;;
9698;SDS011;10089;47.876;8.346;2024-01-30T12:00:19;3.53;;;1.50;;
9698;SDS011;10089;47.876;8.346;2024-01-30T12:02:50;1.60;;;1.42;;
9698;SDS011;10089;47.876;8.346;2024-01-30T12:05:20;7.80;;;4.55;;
9698;SDS011;10089;47.876;8.346;2024-01-30T12:07:46;19.63;;;12.95;;
9698;SDS011;10089;47.876;8.346;2024-01-30T12:10:13;11.02;;;7.40;;
9698;SDS011;10089;47.876;8.346;2024-01-30T12:12:39;2.50;;;1.92;;
9698;SDS011;10089;47.876;8.346;2024-01-30T12:15:08;20.23;;;12.60;;
9698;SDS011;10089;47.876;8.346;2024-01-30T12:17:35;19.05;;;11.82;;
9698;SDS011;10089;47.876;8.346;2024-01-30T12:20:05;20.20;;;13.15;;
9698;SDS011;10089;47.876;8.346;2024-01-30T12:22:37;4.38;;;2.85;;
9698;SDS011;10089;47.876;8.346;2024-01-30T12:25:07;13.50;;;7.88;;
9698;SDS011;10089;47.876;8.346;2024-01-30T12:27:35;11.32;;;7.72;;
9698;SDS011;10089;47.876;8.346;2024-01-30T12:30:06;127.50;;;61.00;;
9698;SDS011;10089;47.876;8.346;2024-01-30T12:39:42;12.52;;;7.85;;
9698;SDS011;10089;47.876;8.346;2024-01-30T12:43:27;44.28;;;25.50;;
9698;SDS011;10089;47.876;8.346;2024-01-30T12:46:03;36.55;;;22.80;;
9698;SDS011;10089;47.876;8.346;2024-01-30T12:48:45;23.38;;;13.68;;
9698;SDS011;10089;47.876;8.346;2024-01-30T12:51:20;5.03;;;3.00;;
9698;SDS011;10089;47.876;8.346;2024-01-30T12:53:47;5.03;;;2.08;;
9698;SDS011;10089;47.876;8.346;2024-01-30T12:56:15;5.00;;;1.70;;
9698;SDS011;10089;47.876;8.346;2024-01-30T12:58:46;4.03;;;2.03;;
9698;SDS011;10089;47.876;8.346;2024-01-30T13:01:21;3.22;;;1.60;;
9698;SDS011;10089;47.876;8.346;2024-01-30T13:04:42;2.60;;;1.95;;
9698;SDS011;10089;47.876;8.346;2024-01-30T13:08:24;2.05;;;1.65;;
9698;SDS011;10089;47.876;8.346;2024-01-30T13:10:50;1.85;;;1.55;;
9698;SDS011;10089;47.876;8.346;2024-01-30T13:13:16;2.10;;;1.90;;
9698;SDS011;10089;47.876;8.346;2024-01-30T13:15:42;2.20;;;1.50;;
9698;SDS011;10089;47.876;8.346;2024-01-30T13:21:51;3.30;;;1.58;;
9698;SDS011;10089;47.876;8.346;2024-01-30T13:25:15;1.40;;;1.30;;
9698;SDS011;10089;47.876;8.346;2024-01-30T13:28:56;1.98;;;1.50;;
9698;SDS011;10089;47.876;8.346;2024-01-30T13:31:38;1.73;;;1.45;;
9698;SDS011;10089;47.876;8.346;2024-01-30T13:35:27;2.08;;;1.52;;
9698;SDS011;10089;47.876;8.346;2024-01-30T13:38:13;2.05;;;1.67;;
9698;SDS011;10089;47.876;8.346;2024-01-30T13:40:55;4.68;;;2.30;;
9698;SDS011;10089;47.876;8.346;2024-01-30T13:43:57;4.68;;;1.70;;
9698;SDS011;10089;47.876;8.346;2024-01-30T13:50:36;4.22;;;1.88;;
9698;SDS011;10089;47.876;8.346;2024-01-30T13:56:11;2.95;;;1.95;;
9698;SDS011;10089;47.876;8.346;2024-01-30T13:58:53;2.30;;;1.77;;
9698;SDS011;10089;47.876;8.346;2024-01-30T14:02:05;2.90;;;2.10;;
9698;SDS011;10089;47.876;8.346;2024-01-30T14:04:44;2.97;;;2.15;;
9698;SDS011;10089;47.876;8.346;2024-01-30T14:07:14;1.60;;;1.42;;
9698;SDS011;10089;47.876;8.346;2024-01-30T14:10:19;30.20;;;3.65;;
9698;SDS011;10089;47.876;8.346;2024-01-30T14:18:04;5.07;;;2.25;;
9698;SDS011;10089;47.876;8.346;2024-01-30T14:21:57;2.65;;;2.00;;
9698;SDS011;10089;47.876;8.346;2024-01-30T14:24:23;3.90;;;2.30;;
9698;SDS011;10089;47.876;8.346;2024-01-30T14:26:48;2.78;;;2.05;;
9698;SDS011;10089;47.876;8.346;2024-01-30T14:29:17;2.00;;;1.80;;
9698;SDS011;10089;47.876;8.346;2024-01-30T14:31:43;4.55;;;2.10;;
9698;SDS011;10089;47.876;8.346;2024-01-30T14:34:09;8.73;;;6.05;;
9698;SDS011;10089;47.876;8.346;2024-01-30T14:36:36;7.55;;;5.68;;
9698;SDS011;10089;47.876;8.346;2024-01-30T14:41:37;12.65;;;7.80;;
9698;SDS011;10089;47.876;8.346;2024-01-30T14:44:05;10.60;;;7.45;;
9698;SDS011;10089;47.876;8.346;2024-01-30T14:46:31;9.50;;;5.32;;
9698;SDS011;10089;47.876;8.346;2024-01-30T14:48:57;19.27;;;13.13;;
9698;SDS011;10089;47.876;8.346;2024-01-30T14:51:24;11.93;;;5.65;;
9698;SDS011;10089;47.876;8.346;2024-01-30T14:53:50;7.97;;;5.40;;
9698;SDS011;10089;47.876;8.346;2024-01-30T14:56:16;7.03;;;4.40;;
9698;SDS011;10089;47.876;8.346;2024-01-30T14:58:46;12.73;;;5.53;;
9698;SDS011;10089;47.876;8.346;2024-01-30T15:01:15;11.32;;;5.20;;
9698;SDS011;10089;47.876;8.346;2024-01-30T15:03:40;7.35;;;5.20;;
9698;SDS011;10089;47.876;8.346;2024-01-30T15:06:08;7.07;;;4.47;;
9698;SDS011;10089;47.876;8.346;2024-01-30T15:08:34;10.05;;;5.28;;
9698;SDS011;10089;47.876;8.346;2024-01-30T15:10:59;16.20;;;9.13;;
9698;SDS011;10089;47.876;8.346;2024-01-30T15:13:26;16.25;;;10.00;;
9698;SDS011;10089;47.876;8.346;2024-01-30T15:15:52;14.73;;;8.65;;
9698;SDS011;10089;47.876;8.346;2024-01-30T15:18:18;16.08;;;8.20;;
9698;SDS011;10089;47.876;8.346;2024-01-30T15:20:45;12.13;;;8.00;;
9698;SDS011;10089;47.876;8.346;2024-01-30T15:23:10;16.95;;;11.25;;
9698;SDS011;10089;47.876;8.346;2024-01-30T15:25:36;17.20;;;10.45;;
9698;SDS011;10089;47.876;8.346;2024-01-30T15:28:02;17.52;;;11.13;;
9698;SDS011;10089;47.876;8.346;2024-01-30T15:30:29;17.27;;;11.85;;
9698;SDS011;10089;47.876;8.346;2024-01-30T15:33:09;16.50;;;10.82;;
9698;SDS011;10089;47.876;8.346;2024-01-30T15:36:28;13.63;;;10.43;;
9698;SDS011;10089;47.876;8.346;2024-01-30T15:39:15;15.60;;;9.85;;
9698;SDS011;10089;47.876;8.346;2024-01-30T15:41:51;13.18;;;9.85;;
9698;SDS011;10089;47.876;8.346;2024-01-30T15:44:17;14.40;;;9.98;;
9698;SDS011;10089;47.876;8.346;2024-01-30T15:46:49;13.82;;;9.95;;
9698;SDS011;10089;47.876;8.346;2024-01-30T15:49:26;16.73;;;10.25;;
9698;SDS011;10089;47.876;8.346;2024-01-30T15:51:53;17.05;;;10.43;;
9698;SDS011;10089;47.876;8.346;2024-01-30T15:54:28;24.42;;;14.80;;
9698;SDS011;10089;47.876;8.346;2024-01-30T16:01:45;16.83;;;10.73;;
9698;SDS011;10089;47.876;8.346;2024-01-30T16:04:14;18.83;;;10.77;;
9698;SDS011;10089;47.876;8.346;2024-01-30T16:06:40;15.80;;;10.60;;
9698;SDS011;10089;47.876;8.346;2024-01-30T16:09:08;17.83;;;11.10;;
9698;SDS011;10089;47.876;8.346;2024-01-30T16:23:04;24.88;;;13.02;;
9698;SDS011;10089;47.876;8.346;2024-01-30T16:25:30;21.95;;;13.70;;
9698;SDS011;10089;47.876;8.346;2024-01-30T16:27:55;16.60;;;11.63;;
9698;SDS011;10089;47.876;8.346;2024-01-30T16:30:31;25.83;;;15.20;;
9698;SDS011;10089;47.876;8.346;2024-01-30T16:33:00;26.67;;;12.82;;
9698;SDS011;10089;47.876;8.346;2024-01-30T16:35:26;20.75;;;13.57;;
9698;SDS011;10089;47.876;8.346;2024-01-30T16:37:51;20.73;;;13.45;;
9698;SDS011;10089;47.876;8.346;2024-01-30T16:40:17;19.80;;;12.77;;
9698;SDS011;10089;47.876;8.346;2024-01-30T16:42:42;19.23;;;13.85;;
9698;SDS011;10089;47.876;8.346;2024-01-30T16:45:08;22.42;;;12.32;;
9698;SDS011;10089;47.876;8.346;2024-01-30T16:47:33;18.95;;;12.45;;
9698;SDS011;10089;47.876;8.346;2024-01-30T16:49:59;20.38;;;12.77;;
9698;SDS011;10089;47.876;8.346;2024-01-30T16:52:25;24.95;;;14.73;;
9698;SDS011;10089;47.876;8.346;2024-01-30T16:54:51;20.83;;;13.88;;
9698;SDS011;10089;47.876;8.346;2024-01-30T16:57:17;25.05;;;14.77;;
9698;SDS011;10089;47.876;8.346;2024-01-30T16:59:44;18.48;;;12.85;;
9698;SDS011;10089;47.876;8.346;2024-01-30T17:02:10;20.60;;;13.77;;
9698;SDS011;10089;47.876;8.346;2024-01-30T17:04:35;18.25;;;11.88;;
9698;SDS011;10089;47.876;8.346;2024-01-30T17:07:02;16.35;;;11.65;;
9698;SDS011;10089;47.876;8.346;2024-01-30T17:09:28;20.13;;;11.80;;
9698;SDS011;10089;47.876;8.346;2024-01-30T17:11:54;19.92;;;11.45;;
9698;SDS011;10089;47.876;8.346;2024-01-30T17:14:20;18.17;;;14.07;;
9698;SDS011;10089;47.876;8.346;2024-01-30T17:16:45;21.98;;;12.27;;
9698;SDS011;10089;47.876;8.346;2024-01-30T17:19:13;18.10;;;11.50;;
9698;SDS011;10089;47.876;8.346;2024-01-30T17:21:40;20.80;;;13.32;;
9698;SDS011;10089;47.876;8.346;2024-01-30T17:24:05;43.92;;;26.65;;
9698;SDS011;10089;47.876;8.346;2024-01-30T17:26:32;81.05;;;40.78;;
9698;SDS011;10089;47.876;8.346;2024-01-30T17:28:59;65.35;;;34.08;;
9698;SDS011;10089;47.876;8.346;2024-01-30T17:31:26;66.53;;;33.88;;
9698;SDS011;10089;47.876;8.346;2024-01-30T17:33:52;77.95;;;36.60;;
9698;SDS011;10089;47.876;8.346;2024-01-30T17:36:17;66.72;;;34.88;;
9698;SDS011;10089;47.876;8.346;2024-01-30T17:38:43;65.85;;;34.95;;
9698;SDS011;10089;47.876;8.346;2024-01-30T17:41:15;56.08;;;30.10;;
9698;SDS011;10089;47.876;8.346;2024-01-30T17:44:09;49.08;;;29.95;;
9698;SDS011;10089;47.876;8.346;2024-01-30T17:46:50;40.78;;;26.33;;
9698;SDS011;10089;47.876;8.346;2024-01-30T17:49:20;42.22;;;25.90;;
9698;SDS011;10089;47.876;8.346;2024-01-30T17:52:19;33.13;;;20.70;;
9698;SDS011;10089;47.876;8.346;2024-01-30T17:54:48;35.65;;;20.00;;
9698;SDS011;10089;47.876;8.346;2024-01-30T17:57:15;27.50;;;18.20;;
9698;SDS011;10089;47.876;8.346;2024-01-30T18:00:32;30.55;;;17.85;;
9698;SDS011;10089;47.876;8.346;2024-01-30T18:03:15;27.33;;;16.98;;
9698;SDS011;10089;47.876;8.346;2024-01-30T18:06:26;31.13;;;18.00;;
9698;SDS011;10089;47.876;8.346;2024-01-30T18:09:11;28.23;;;17.92;;
9698;SDS011;10089;47.876;8.346;2024-01-30T18:12:02;29.15;;;18.02;;
9698;SDS011;10089;47.876;8.346;2024-01-30T18:17:32;29.73;;;19.05;;
9698;SDS011;10089;47.876;8.346;2024-01-30T18:19:58;34.55;;;20.10;;
9698;SDS011;10089;47.876;8.346;2024-01-30T18:22:24;34.90;;;20.98;;
9698;SDS011;10089;47.876;8.346;2024-01-30T18:24:50;39.47;;;22.50;;
9698;SDS011;10089;47.876;8.346;2024-01-30T18:27:15;43.85;;;23.30;;
9698;SDS011;10089;47.876;8.346;2024-01-30T18:29:41;40.67;;;23.15;;
9698;SDS011;10089;47.876;8.346;2024-01-30T18:32:07;39.35;;;22.10;;
9698;SDS011;10089;47.876;8.346;2024-01-30T18:34:32;32.92;;;17.92;;
9698;SDS011;10089;47.876;8.346;2024-01-30T18:36:58;24.67;;;14.63;;
9698;SDS011;10089;47.876;8.346;2024-01-30T18:39:28;19.88;;;12.18;;
9698;SDS011;10089;47.876;8.346;2024-01-30T18:42:20;19.00;;;11.60;;
9698;SDS011;10089;47.876;8.346;2024-01-30T18:45:39;17.02;;;10.88;;
9698;SDS011;10089;47.876;8.346;2024-01-30T18:48:09;24.60;;;14.10;;
9698;SDS011;10089;47.876;8.346;2024-01-30T18:51:16;45.90;;;28.50;;
9698;SDS011;10089;47.876;8.346;2024-01-30T18:54:18;31.33;;;19.50;;
9698;SDS011;10089;47.876;8.346;2024-01-30T18:56:53;32.25;;;20.20;;
9698;SDS011;10089;47.876;8.346;2024-01-30T18:59:29;34.22;;;21.50;;
9698;SDS011;10089;47.876;8.346;2024-01-30T19:02:20;32.22;;;20.60;;
9698;SDS011;10089;47.876;8.346;2024-01-30T19:10:08;30.42;;;18.55;;
9698;SDS011;10089;47.876;8.346;2024-01-30T19:20:09;30.90;;;16.98;;
9698;SDS011;10089;47.876;8.346;2024-01-30T19:35:36;17.30;;;11.75;;
9698;SDS011;10089;47.876;8.346;2024-01-30T19:39:18;23.88;;;12.57;;
9698;SDS011;10089;47.876;8.346;2024-01-30T19:48:07;17.83;;;11.27;;
9698;SDS011;10089;47.876;8.346;2024-01-30T19:50:33;17.23;;;11.43;;
9698;SDS011;10089;47.876;8.346;2024-01-30T19:52:58;19.00;;;12.07;;
9698;SDS011;10089;47.876;8.346;2024-01-30T19:55:24;16.10;;;11.13;;
9698;SDS011;10089;47.876;8.346;2024-01-30T19:57:50;17.70;;;11.57;;
9698;SDS011;10089;47.876;8.346;2024-01-30T20:00:16;16.58;;;11.75;;
9698;SDS011;10089;47.876;8.346;2024-01-30T20:02:42;15.32;;;10.18;;
9698;SDS011;10089;47.876;8.346;2024-01-30T20:05:08;13.07;;;9.02;;
9698;SDS011;10089;47.876;8.346;2024-01-30T20:07:34;17.88;;;12.32;;
9698;SDS011;10089;47.876;8.346;2024-01-30T20:10:00;18.15;;;12.13;;
9698;SDS011;10089;47.876;8.346;2024-01-30T20:12:26;18.77;;;13.05;;
9698;SDS011;10089;47.876;8.346;2024-01-30T20:14:52;20.25;;;13.75;;
9698;SDS011;10089;47.876;8.346;2024-01-30T20:17:17;22.38;;;13.05;;